KIWD Weather

FAA AWOS (Automated Weather Observing System)

Weather observations for the last 3 days click here.

KIWD

METAR
KIWD 210456Z AUTO 00000KT 10SM CLR 04/03 A3020 RMK AO2 SLP234 T00440028
KIWD 210356Z AUTO 00000KT 10SM CLR 05/03 A3019 RMK AO2 SLP231 T00500033
TAF
KIWD 202338Z 2100/2124 VRB03KT P6SM SKC